Time;durP1;ratioP1;P1;durP2;ratioP2;P2;SDS_P1;SDS_P2;PMS_P1;PMS_P2;Temp;Humidity;BMP_temperature;BMP_pressure;BME280_temperature;BME280_humidity;BME280_pressure;Samples;Min_cycle;Max_cycle;Signal;HPM_P1;HPM_P2
2022/11/30 00:01:55;;;;;;;;;41.00;33.00;;;;;9.12;68.91;101724.91;5016456;28;46639;-71
2022/11/30 00:04:20;;;;;;;;;33.33;26.00;;;;;8.61;68.88;101634.88;4995213;28;46280;-72
2022/11/30 00:06:45;;;;;;;;;35.67;31.00;;;;;9.43;68.29;101771.31;4998146;28;45504;-71
2022/11/30 00:09:12;;;;;;;;;36.00;32.67;;;;;8.38;68.75;101614.44;4998177;28;45381;-74
2022/11/30 00:11:37;;;;;;;;;41.67;33.00;;;;;9.15;69.30;101744.09;5016667;28;45979;-73
2022/11/30 00:14:02;;;;;;;;;39.67;33.33;;;;;8.72;69.65;101680.00;5011999;28;45469;-74
2022/11/30 00:16:28;;;;;;;;;30.33;29.67;;;;;8.48;69.50;101629.59;4986256;28;45511;-72
2022/11/30 00:18:53;;;;;;;;;36.33;33.33;;;;;8.22;69.55;101574.94;5006216;28;45234;-72
2022/11/30 00:21:19;;;;;;;;;37.33;32.33;;;;;9.38;69.82;101776.94;4997519;28;45605;-72
2022/11/30 00:23:45;;;;;;;;;28.33;26.33;;;;;9.50;69.49;101790.28;4997410;28;45599;-72
2022/11/30 00:26:13;;;;;;;;;32.33;29.00;;;;;9.57;69.16;101781.75;5008061;28;45207;-73
2022/11/30 00:28:39;;;;;;;;;40.67;35.67;;;;;9.26;69.60;101753.94;5015894;28;45514;-72
2022/11/30 00:31:09;;;;;;;;;40.33;33.33;;;;;9.33;69.71;101772.91;5016851;28;45492;-71
2022/11/30 00:33:36;;;;;;;;;36.67;33.00;;;;;9.14;70.00;101738.91;5002783;28;45394;-73
2022/11/30 00:36:23;;;;;;;;;34.00;32.33;;;;;8.47;69.47;101635.00;4997310;28;45216;-73
2022/11/30 00:38:50;;;;;;;;;25.33;21.33;;;;;9.33;69.95;101765.81;4996812;28;45526;-70
2022/11/30 00:41:17;;;;;;;;;32.33;30.67;;;;;9.34;69.60;101766.66;4995910;28;46725;-72
2022/11/30 00:43:43;;;;;;;;;41.67;34.00;;;;;9.20;69.29;101734.94;4995854;28;46148;-71
2022/11/30 00:46:09;;;;;;;;;37.00;33.33;;;;;9.42;69.16;101769.63;4997342;28;45303;-73
2022/11/30 00:48:35;;;;;;;;;43.00;31.00;;;;;8.97;69.35;101695.00;4997295;28;45543;-72
2022/11/30 00:51:00;;;;;;;;;35.00;32.00;;;;;9.25;69.23;101754.91;5000703;28;45494;-72
2022/11/30 00:53:26;;;;;;;;;39.33;32.00;;;;;8.05;69.93;101552.28;4983364;28;45576;-71
2022/11/30 00:55:51;;;;;;;;;42.33;35.67;;;;;8.27;70.15;101606.41;5016951;28;45249;-72
2022/11/30 00:58:17;;;;;;;;;39.33;34.00;;;;;7.79;70.24;101540.00;5020813;28;45251;-72
2022/11/30 01:00:42;;;;;;;;;36.33;33.00;;;;;8.76;70.40;101701.84;5018968;28;47328;-71
2022/11/30 01:03:08;;;;;;;;;43.67;33.33;;;;;9.16;70.69;101763.50;5018209;28;45507;-70
2022/11/30 01:05:35;;;;;;;;;40.00;34.00;;;;;9.22;70.27;101763.09;5020427;28;45476;-72
2022/11/30 01:08:02;;;;;;;;;45.33;38.33;;;;;9.33;69.72;101770.25;5020778;28;45356;-71
2022/11/30 01:10:28;;;;;;;;;40.00;33.67;;;;;9.30;69.63;101755.41;5020071;28;46445;-73
2022/11/30 01:12:53;;;;;;;;;34.00;30.67;;;;;8.88;69.45;101692.19;5002016;28;45425;-71
2022/11/30 01:15:19;;;;;;;;;32.00;28.00;;;;;8.82;69.54;101694.31;5002467;28;45257;-72
2022/11/30 01:17:44;;;;;;;;;35.67;31.00;;;;;9.33;69.78;101757.84;5002473;28;45582;-71
2022/11/30 01:20:10;;;;;;;;;35.33;32.00;;;;;9.25;69.55;101760.22;5020041;28;45942;-72
2022/11/30 01:22:35;;;;;;;;;33.67;32.33;;;;;9.34;69.88;101770.16;5020160;28;45174;-72
2022/11/30 01:25:01;;;;;;;;;42.00;35.00;;;;;9.36;69.60;101762.91;5019111;28;45704;-71
2022/11/30 01:27:26;;;;;;;;;41.67;34.33;;;;;9.11;68.91;101724.06;5020496;28;45376;-71
2022/11/30 01:29:52;;;;;;;;;48.00;34.33;;;;;9.44;69.28;101765.03;5019948;28;46823;-72
2022/11/30 01:32:17;;;;;;;;;37.67;33.00;;;;;9.22;68.92;101725.09;5016487;28;45415;-71
2022/11/30 01:34:43;;;;;;;;;38.33;32.33;;;;;8.54;69.50;101639.75;5000173;28;45318;-71
2022/11/30 01:37:08;;;;;;;;;38.67;34.33;;;;;8.89;69.95;101744.25;5000056;28;45525;-71
2022/11/30 01:39:33;;;;;;;;;35.00;31.33;;;;;8.34;70.51;101663.31;4999398;28;54171;-72
2022/11/30 01:41:59;;;;;;;;;38.00;35.33;;;;;8.09;70.54;101624.41;4982269;28;46452;-71
2022/11/30 01:44:27;;;;;;;;;38.33;34.00;;;;;8.95;70.17;101759.72;4999963;28;45297;-73
2022/11/30 01:47:06;;;;;;;;;37.00;33.00;;;;;8.71;70.00;101712.78;5000089;28;45563;-72
2022/11/30 01:49:45;;;;;;;;;37.00;32.00;;;;;8.37;69.65;101665.75;4999830;28;45851;-71
2022/11/30 01:52:20;;;;;;;;;34.67;29.67;;;;;8.94;69.78;101752.75;4999344;28;45282;-71
2022/11/30 01:55:10;;;;;;;;;27.00;26.00;;;;;9.11;69.06;101771.81;5009890;28;45325;-70
2022/11/30 01:57:39;;;;;;;;;32.33;30.00;;;;;8.36;68.91;101638.41;5018044;28;45916;-73
2022/11/30 02:00:09;;;;;;;;;33.33;29.00;;;;;9.06;68.78;101763.34;5017639;28;45381;-71
2022/11/30 02:03:00;;;;;;;;;30.33;25.67;;;;;8.94;68.95;101766.84;5017266;28;45283;-70
2022/11/30 02:05:26;;;;;;;;;31.00;30.33;;;;;9.02;68.96;101776.94;5020479;28;45449;-72
2022/11/30 02:07:52;;;;;;;;;27.00;26.00;;;;;8.98;68.94;101776.28;5018594;28;45392;-72
2022/11/30 02:10:25;;;;;;;;;29.33;24.33;;;;;9.06;69.07;101766.00;5001102;28;45400;-72
2022/11/30 02:13:28;;;;;;;;;31.00;29.33;;;;;9.12;69.03;101764.69;5017384;28;45452;-71
2022/11/30 02:16:04;;;;;;;;;31.00;29.33;;;;;9.11;68.69;101770.97;5019395;28;45521;-72
2022/11/30 02:18:42;;;;;;;;;24.33;22.33;;;;;7.99;68.11;101589.75;5017962;28;45361;-71
2022/11/30 02:21:40;;;;;;;;;19.00;18.00;;;;;9.08;68.11;101760.56;5018825;28;48420;-71
2022/11/30 02:24:23;;;;;;;;;18.00;17.00;;;;;7.97;67.43;101585.53;4999379;28;45227;-71
2022/11/30 02:27:03;;;;;;;;;17.33;17.33;;;;;8.97;67.95;101756.00;5018981;28;45430;-69
2022/11/30 02:29:36;;;;;;;;;26.00;23.33;;;;;9.04;68.30;101759.94;5017729;28;45440;-71
2022/11/30 02:32:08;;;;;;;;;23.67;21.33;;;;;9.01;67.95;101761.94;5014923;28;48433;-71
2022/11/30 02:34:36;;;;;;;;;19.67;15.33;;;;;9.05;68.05;101774.06;5018853;28;45377;-70
2022/11/30 02:37:03;;;;;;;;;21.00;18.00;;;;;8.16;67.68;101613.28;5018716;28;45380;-71
2022/11/30 02:39:29;;;;;;;;;23.67;21.33;;;;;8.04;67.72;101606.19;5019036;28;45518;-72
2022/11/30 02:41:54;;;;;;;;;18.00;17.00;;;;;8.99;67.19;101746.13;5000838;28;47619;-71
2022/11/30 02:44:21;;;;;;;;;21.00;20.33;;;;;8.13;67.19;101605.56;5018530;28;45535;-71
2022/11/30 02:47:18;;;;;;;;;25.00;19.67;;;;;8.89;67.88;101766.34;5017656;28;45352;-70
2022/11/30 02:50:05;;;;;;;;;22.33;20.33;;;;;8.45;68.10;101692.56;5000871;28;45465;-71
2022/11/30 02:52:32;;;;;;;;;22.33;17.67;;;;;8.83;68.13;101777.38;5018362;28;45330;-72
2022/11/30 02:55:07;;;;;;;;;16.67;16.00;;;;;7.57;68.88;101605.00;5016936;28;45334;-71
2022/11/30 02:57:33;;;;;;;;;22.67;20.00;;;;;8.48;69.34;101740.06;5017241;28;45547;-70
2022/11/30 03:00:00;;;;;;;;;23.33;22.33;;;;;8.56;68.96;101734.22;4998985;28;45509;-72
2022/11/30 03:02:26;;;;;;;;;12.67;12.33;;;;;8.05;69.08;101684.69;5006362;28;46504;-72
2022/11/30 03:04:51;;;;;;;;;25.33;23.33;;;;;7.52;68.61;101598.31;5018090;28;45325;-71
2022/11/30 03:07:16;;;;;;;;;16.00;15.00;;;;;8.48;69.44;101766.56;5017358;28;45565;-71
2022/11/30 03:09:42;;;;;;;;;17.00;16.33;;;;;8.32;69.42;101750.81;5018493;28;45424;-71
2022/11/30 03:12:07;;;;;;;;;21.67;20.33;;;;;8.53;69.15;101770.59;5017532;28;46983;-71
2022/11/30 03:14:32;;;;;;;;;21.00;18.00;;;;;7.40;68.96;101562.94;5018258;28;45586;-71
2022/11/30 03:16:58;;;;;;;;;23.00;22.33;;;;;8.44;69.79;101770.38;5018350;28;45626;-72
2022/11/30 03:19:23;;;;;;;;;17.00;17.00;;;;;8.42;69.74;101772.28;5018420;28;45441;-70
2022/11/30 03:21:48;;;;;;;;;19.00;17.00;;;;;8.26;70.16;101745.09;5000254;28;48669;-71
2022/11/30 03:24:14;;;;;;;;;22.00;19.00;;;;;7.76;70.48;101686.66;4992736;28;45385;-72
2022/11/30 03:26:39;;;;;;;;;19.00;17.00;;;;;7.67;69.75;101678.50;4997383;28;45275;-70
2022/11/30 03:29:04;;;;;;;;;21.33;18.33;;;;;8.41;70.11;101786.47;4998501;28;45218;-71
2022/11/30 03:31:30;;;;;;;;;23.00;18.00;;;;;8.25;70.26;101765.44;4998066;28;45556;-70
2022/11/30 03:33:55;;;;;;;;;20.00;18.67;;;;;8.53;69.71;101788.28;4980578;28;45310;-71
2022/11/30 03:36:21;;;;;;;;;27.33;23.33;;;;;7.76;69.25;101630.22;4996856;28;45308;-72
2022/11/30 03:38:46;;;;;;;;;20.67;17.67;;;;;7.55;69.01;101609.53;4998493;28;45287;-70
2022/11/30 03:41:15;;;;;;;;;23.00;19.33;;;;;8.54;69.20;101766.13;4996883;28;45543;-72
2022/11/30 03:43:41;;;;;;;;;18.67;16.67;;;;;8.64;69.20;101806.97;4996412;28;45423;-71
2022/11/30 03:46:07;;;;;;;;;23.00;22.67;;;;;8.58;69.53;101806.53;4997904;28;45488;-71
2022/11/30 03:48:34;;;;;;;;;16.67;16.67;;;;;8.35;70.23;101821.34;4996970;28;45572;-70
2022/11/30 03:51:01;;;;;;;;;22.00;21.33;;;;;7.21;70.76;101616.25;4997879;28;46596;-71
2022/11/30 03:53:26;;;;;;;;;24.33;22.67;;;;;8.42;70.25;101820.00;4997131;28;45322;-71
2022/11/30 03:55:54;;;;;;;;;16.67;16.67;;;;;7.87;70.28;101723.00;4997867;28;45345;-71
2022/11/30 03:58:20;;;;;;;;;13.00;12.67;;;;;8.44;70.19;101826.03;5013768;28;45552;-70
2022/11/30 04:00:46;;;;;;;;;19.67;17.33;;;;;7.76;70.12;101722.88;4979865;28;45760;-70
2022/11/30 04:03:11;;;;;;;;;13.33;13.00;;;;;7.31;70.23;101656.16;4999024;28;45513;-70
2022/11/30 04:05:37;;;;;;;;;12.33;12.00;;;;;7.91;70.52;101774.81;5000092;28;45504;-72
2022/11/30 04:08:02;;;;;;;;;11.33;11.00;;;;;7.50;70.72;101693.69;5017338;28;45495;-71
2022/11/30 04:10:27;;;;;;;;;11.00;10.33;;;;;8.22;69.79;101829.25;5017465;28;46687;-71
2022/11/30 04:12:53;;;;;;;;;9.67;8.00;;;;;7.85;69.53;101761.97;5017401;28;45283;-72
2022/11/30 04:15:18;;;;;;;;;7.67;7.67;;;;;7.77;69.76;101758.97;5017454;28;45450;-70
2022/11/30 04:17:43;;;;;;;;;8.33;7.67;;;;;7.97;70.14;101790.28;5017660;28;45473;-72
2022/11/30 04:20:10;;;;;;;;;11.00;9.33;;;;;7.56;69.91;101735.59;5017258;28;45284;-72
2022/11/30 04:22:35;;;;;;;;;8.67;7.33;;;;;7.92;69.91;101795.03;5017343;28;45411;-71
2022/11/30 04:25:00;;;;;;;;;11.00;8.00;;;;;8.17;69.82;101841.91;5014670;28;50835;-70
2022/11/30 04:27:27;;;;;;;;;8.33;7.00;;;;;7.56;69.49;101732.97;5017419;28;45464;-70
2022/11/30 04:29:52;;;;;;;;;12.33;10.67;;;;;6.46;69.61;101545.41;5017212;28;46887;-70
2022/11/30 04:32:18;;;;;;;;;13.33;11.00;;;;;8.16;70.06;101835.78;4996588;28;45488;-71
2022/11/30 04:34:43;;;;;;;;;12.33;8.00;;;;;7.45;70.51;101785.75;5017243;28;45195;-71
2022/11/30 04:37:08;;;;;;;;;11.33;9.00;;;;;6.89;71.27;101723.22;5017273;28;45222;-72
2022/11/30 04:39:34;;;;;;;;;9.67;7.67;;;;;7.70;70.84;101832.66;5016746;28;45850;-73
2022/11/30 04:42:00;;;;;;;;;13.00;11.33;;;;;7.78;71.09;101840.09;5015569;28;45733;-71
2022/11/30 04:44:25;;;;;;;;;6.33;6.33;;;;;7.67;70.26;101789.66;5011976;28;45504;-71
2022/11/30 04:46:50;;;;;;;;;13.67;8.67;;;;;7.27;70.01;101719.00;5016171;28;45422;-72
2022/11/30 04:49:16;;;;;;;;;12.00;8.67;;;;;7.53;70.23;101756.13;5014367;28;46379;-71
2022/11/30 04:51:41;;;;;;;;;13.33;10.67;;;;;7.34;69.99;101730.03;4997873;28;45337;-71
2022/11/30 04:54:07;;;;;;;;;11.67;9.67;;;;;7.80;70.13;101806.41;4987517;28;45512;-72
2022/11/30 04:56:32;;;;;;;;;11.67;11.67;;;;;8.11;69.72;101852.94;5011480;28;45325;-72
2022/11/30 04:59:00;;;;;;;;;12.67;11.33;;;;;7.69;70.05;101790.41;4996457;28;47259;-71
2022/11/30 05:01:25;;;;;;;;;7.33;7.33;;;;;6.45;70.07;101607.13;4997054;28;45358;-71
2022/11/30 05:03:50;;;;;;;;;6.67;4.67;;;;;7.35;69.95;101762.59;4996947;28;45251;-71
2022/11/30 05:06:16;;;;;;;;;10.33;8.33;;;;;7.30;70.31;101760.28;4997025;28;45268;-72
2022/11/30 05:08:41;;;;;;;;;11.00;11.00;;;;;7.60;70.05;101805.91;4996581;28;45521;-71
2022/11/30 05:11:06;;;;;;;;;10.00;8.00;;;;;7.63;69.93;101840.16;5002283;28;45634;-72
2022/11/30 05:13:32;;;;;;;;;10.33;7.67;;;;;7.50;70.35;101836.56;5016480;28;45653;-71
2022/11/30 05:15:57;;;;;;;;;11.00;11.00;;;;;7.34;71.06;101838.47;5016693;28;45649;-71
2022/11/30 05:18:22;;;;;;;;;7.00;7.00;;;;;6.93;71.44;101791.66;5016352;28;45525;-72
2022/11/30 05:20:49;;;;;;;;;11.33;8.33;;;;;7.18;71.82;101856.25;4998386;28;46765;-71
2022/11/30 05:23:15;;;;;;;;;8.33;8.33;;;;;6.52;71.35;101738.72;5016228;28;45279;-72
2022/11/30 05:25:42;;;;;;;;;10.00;10.00;;;;;7.18;71.84;101833.28;5016530;28;45507;-70
2022/11/30 05:28:07;;;;;;;;;9.33;8.67;;;;;6.79;71.09;101770.50;5015012;28;48292;-71
2022/11/30 05:30:32;;;;;;;;;11.00;10.33;;;;;4.34;71.08;101393.00;5016347;28;45503;-70
2022/11/30 05:32:58;;;;;;;;;5.00;4.00;;;;;7.15;71.01;101851.16;4999162;28;45465;-70
2022/11/30 05:35:23;;;;;;;;;10.00;8.00;;;;;7.10;71.68;101834.72;4997967;28;45410;-72
2022/11/30 05:37:49;;;;;;;;;12.67;11.00;;;;;7.20;71.88;101859.63;4999943;28;45555;-71
2022/11/30 05:40:14;;;;;;;;;11.67;10.00;;;;;7.24;70.88;101835.56;4982136;28;45497;-71
2022/11/30 05:42:39;;;;;;;;;13.33;8.00;;;;;7.43;71.02;101842.34;5001579;28;45592;-71
2022/11/30 05:45:05;;;;;;;;;11.00;9.33;;;;;7.39;70.69;101817.88;4999954;28;45358;-73
2022/11/30 05:47:31;;;;;;;;;18.67;13.67;;;;;7.45;70.32;101804.28;4999786;28;46561;-73
2022/11/30 05:49:56;;;;;;;;;7.67;7.33;;;;;7.49;70.55;101821.66;4981934;28;45390;-71
2022/11/30 05:52:21;;;;;;;;;12.33;11.00;;;;;7.08;70.35;101739.63;4999812;28;45219;-71
2022/11/30 05:54:47;;;;;;;;;11.67;10.67;;;;;7.81;69.98;101834.63;4999735;28;45310;-72
2022/11/30 05:57:12;;;;;;;;;11.00;11.00;;;;;6.82;69.99;101653.19;4981570;28;47199;-71
2022/11/30 05:59:37;;;;;;;;;10.33;10.33;;;;;6.97;69.60;101703.28;4999177;28;45344;-72
2022/11/30 06:02:03;;;;;;;;;11.33;10.33;;;;;7.74;70.67;101839.44;4999251;28;47902;-72
2022/11/30 06:04:28;;;;;;;;;11.00;7.00;;;;;7.90;70.42;101839.31;4982975;28;45378;-73
2022/11/30 06:06:56;;;;;;;;;12.33;12.00;;;;;7.38;70.13;101725.38;4981440;28;45331;-74
2022/11/30 06:09:22;;;;;;;;;13.00;10.33;;;;;7.86;69.34;101798.09;4981989;28;45368;-72
2022/11/30 06:11:47;;;;;;;;;11.67;9.33;;;;;8.20;69.28;101833.75;4999747;28;45337;-72
2022/11/30 06:14:12;;;;;;;;;11.67;11.67;;;;;8.26;69.19;101829.88;5005754;28;45779;-73
2022/11/30 06:16:38;;;;;;;;;15.33;12.33;;;;;6.59;68.60;101543.66;5010093;28;45684;-73
2022/11/30 06:19:04;;;;;;;;;12.67;11.67;;;;;8.39;68.64;101841.38;5019963;28;45284;-73
2022/11/30 06:21:29;;;;;;;;;13.33;11.33;;;;;7.54;68.52;101679.28;5015868;28;45424;-73
2022/11/30 06:23:54;;;;;;;;;12.00;9.33;;;;;8.02;68.41;101742.31;4993744;28;45576;-71
2022/11/30 06:26:20;;;;;;;;;12.67;10.67;;;;;8.29;68.19;101795.22;4999046;28;45648;-72
2022/11/30 06:28:45;;;;;;;;;13.67;10.33;;;;;8.62;68.07;101838.03;4999240;28;45483;-72
2022/11/30 06:31:11;;;;;;;;;14.33;12.00;;;;;8.38;67.74;101814.03;5000062;28;45698;-70
2022/11/30 06:33:36;;;;;;;;;14.67;12.67;;;;;8.21;68.27;101782.50;5002175;28;45455;-71
2022/11/30 06:36:02;;;;;;;;;13.00;12.33;;;;;7.45;68.02;101661.41;4998937;28;45283;-72
2022/11/30 06:38:28;;;;;;;;;17.00;13.33;;;;;8.34;68.46;101846.97;4998936;28;45380;-72
2022/11/30 06:40:53;;;;;;;;;15.67;10.67;;;;;7.30;68.46;101649.16;4999010;28;45291;-71
2022/11/30 06:43:19;;;;;;;;;13.00;13.00;;;;;8.57;68.44;101845.44;5002811;28;45375;-71
2022/11/30 06:45:46;;;;;;;;;13.00;12.67;;;;;7.13;68.02;101605.31;5008295;28;47207;-74
2022/11/30 06:48:12;;;;;;;;;17.00;13.67;;;;;8.39;67.70;101806.91;4996263;28;45562;-71
2022/11/30 06:50:38;;;;;;;;;15.00;12.00;;;;;7.84;68.02;101718.78;4999119;28;45487;-72
2022/11/30 06:53:03;;;;;;;;;18.33;17.33;;;;;7.77;68.04;101724.56;4998886;28;45295;-72
2022/11/30 06:55:31;;;;;;;;;14.67;14.67;;;;;7.81;68.46;101734.03;4998953;28;45619;-72
2022/11/30 06:58:07;;;;;;;;;15.67;14.00;;;;;8.51;68.01;101840.56;5006760;28;45210;-72
2022/11/30 07:00:33;;;;;;;;;20.00;16.67;;;;;8.60;68.25;101847.88;4999981;28;45420;-72
2022/11/30 07:02:58;;;;;;;;;19.00;15.67;;;;;8.56;68.06;101848.19;4999907;28;45253;-74
2022/11/30 07:05:24;;;;;;;;;14.00;10.67;;;;;8.51;68.22;101849.34;4999144;28;46346;-72
2022/11/30 07:07:49;;;;;;;;;16.00;13.00;;;;;7.58;68.37;101678.13;4998673;28;45498;-73
2022/11/30 07:10:15;;;;;;;;;17.33;15.33;;;;;8.31;67.41;101803.91;4998499;28;45515;-71
2022/11/30 07:12:40;;;;;;;;;19.67;16.33;;;;;8.43;68.19;101874.69;4997535;28;45474;-74
2022/11/30 07:15:06;;;;;;;;;13.33;13.00;;;;;8.20;67.90;101794.88;4979540;28;47895;-71
2022/11/30 07:17:31;;;;;;;;;19.33;17.33;;;;;7.30;67.88;101638.59;5009886;28;45424;-70
2022/11/30 07:19:57;;;;;;;;;17.00;14.00;;;;;8.58;67.88;101848.94;5017944;28;45557;-70
2022/11/30 07:22:22;;;;;;;;;18.33;16.33;;;;;8.41;67.70;101823.56;5018275;28;45559;-72
2022/11/30 07:27:31;;;;;;;;;25.33;19.00;;;;;8.26;68.36;101824.59;5018057;28;45285;-73
2022/11/30 07:29:57;;;;;;;;;17.33;14.33;;;;;8.26;67.73;101825.44;4984397;28;45743;-77
2022/11/30 07:32:22;;;;;;;;;24.00;17.67;;;;;8.56;68.05;101869.41;4980009;28;45414;-71
2022/11/30 07:34:48;;;;;;;;;15.33;13.67;;;;;7.54;67.94;101684.59;4998227;28;45448;-71
2022/11/30 07:37:13;;;;;;;;;21.67;21.67;;;;;8.67;67.95;101873.03;4982058;28;45594;-72
2022/11/30 07:39:38;;;;;;;;;20.33;18.00;;;;;7.56;68.20;101725.03;4999050;28;45321;-71
2022/11/30 07:42:04;;;;;;;;;19.67;17.00;;;;;8.06;68.83;101805.56;4998540;28;45490;-72
2022/11/30 07:44:29;;;;;;;;;15.00;14.00;;;;;8.54;68.34;101885.41;4999493;28;46924;-71
2022/11/30 07:46:54;;;;;;;;;24.67;22.67;;;;;8.42;68.25;101889.75;5004219;28;45462;-75
2022/11/30 07:49:20;;;;;;;;;17.00;15.33;;;;;7.23;68.56;101700.78;5009064;28;45507;-71
2022/11/30 07:51:45;;;;;;;;;17.00;16.67;;;;;7.54;68.77;101790.44;5003277;28;45163;-71
2022/11/30 07:54:11;;;;;;;;;18.67;17.00;;;;;7.09;69.81;101735.19;4985994;28;45750;-74
2022/11/30 07:56:36;;;;;;;;;22.00;16.67;;;;;7.97;69.58;101872.38;4988309;28;45549;-73
2022/11/30 07:59:02;;;;;;;;;26.00;18.67;;;;;7.40;69.02;101781.69;4999877;28;45316;-73
2022/11/30 08:01:31;;;;;;;;;18.67;17.00;;;;;8.11;69.32;101895.31;5006964;28;45465;-71
2022/11/30 08:03:57;;;;;;;;;19.33;16.00;;;;;8.01;69.19;101894.19;5004752;28;45508;-74
2022/11/30 08:06:26;;;;;;;;;23.33;14.67;;;;;7.79;69.40;101836.47;4999706;28;45471;-71
2022/11/30 08:08:53;;;;;;;;;20.67;17.00;;;;;6.63;69.13;101637.66;4990186;28;45265;-72
2022/11/30 08:11:38;;;;;;;;;19.67;17.00;;;;;8.21;68.89;101891.97;4996528;28;45574;-73
2022/11/30 08:14:13;;;;;;;;;16.00;14.33;;;;;8.14;69.48;101884.50;5005247;28;46099;-70
2022/11/30 08:16:39;;;;;;;;;26.00;18.00;;;;;7.15;68.93;101734.78;5015926;28;45513;-73
2022/11/30 08:19:05;;;;;;;;;21.33;18.33;;;;;7.15;69.33;101724.22;5010553;28;45416;-72
2022/11/30 08:21:34;;;;;;;;;16.33;13.00;;;;;8.32;68.95;101908.94;4992812;28;45628;-72
2022/11/30 08:23:59;;;;;;;;;17.67;14.00;;;;;8.37;69.21;101905.06;5009386;28;48189;-69
2022/11/30 08:26:32;;;;;;;;;20.67;17.00;;;;;8.40;69.11;101907.50;4996667;28;46017;-72
2022/11/30 08:29:00;;;;;;;;;23.00;18.67;;;;;8.31;68.90;101897.50;5017087;28;45392;-73
2022/11/30 08:31:33;;;;;;;;;19.33;17.00;;;;;5.58;68.88;101457.59;5014411;28;45539;-72
2022/11/30 08:34:04;;;;;;;;;24.00;21.00;;;;;8.42;69.18;101897.69;5011127;28;45802;-75
2022/11/30 08:36:30;;;;;;;;;22.00;16.00;;;;;7.43;69.35;101742.66;4994832;28;45532;-73
2022/11/30 08:38:56;;;;;;;;;22.33;19.33;;;;;8.44;69.68;101924.09;5015706;28;45511;-73
2022/11/30 08:41:22;;;;;;;;;15.33;15.00;;;;;8.07;69.50;101862.03;5013083;28;45293;-74
2022/11/30 08:43:48;;;;;;;;;17.33;16.33;;;;;7.75;69.59;101803.22;4991088;28;45560;-73
2022/11/30 08:46:16;;;;;;;;;25.00;21.33;;;;;7.40;68.66;101734.91;4999574;28;45262;-74
2022/11/30 08:48:42;;;;;;;;;16.33;12.67;;;;;8.39;69.52;101894.38;4995828;28;45521;-73
2022/11/30 08:51:10;;;;;;;;;22.00;20.33;;;;;8.61;68.96;101921.16;4988172;28;45011;-72
2022/11/30 08:53:36;;;;;;;;;17.67;15.00;;;;;8.19;68.94;101848.81;5005984;28;46240;-72
2022/11/30 08:56:05;;;;;;;;;28.33;27.67;;;;;8.65;68.40;101927.97;4999544;28;45432;-75
2022/11/30 08:58:32;;;;;;;;;20.67;18.67;;;;;8.67;68.60;101926.06;4981688;28;45637;-74
2022/11/30 09:01:09;;;;;;;;;23.67;20.00;;;;;8.43;68.85;101890.59;4998152;28;45598;-74
2022/11/30 09:03:34;;;;;;;;;30.67;24.33;;;;;7.51;68.74;101743.00;4983769;28;45666;-74
2022/11/30 09:06:11;;;;;;;;;28.00;23.67;;;;;8.48;68.79;101896.41;5015699;28;45360;-74
2022/11/30 09:08:37;;;;;;;;;27.33;22.33;;;;;7.90;68.44;101799.59;5016711;28;45396;-75
2022/11/30 09:11:32;;;;;;;;;31.33;28.33;;;;;8.70;68.44;101919.69;5019071;28;45440;-74
2022/11/30 09:14:01;;;;;;;;;28.67;21.33;;;;;8.65;68.20;101921.81;4986523;28;45569;-75
2022/11/30 09:16:27;;;;;;;;;29.67;25.33;;;;;8.50;68.48;101913.91;5011296;28;45365;-74
2022/11/30 09:18:53;;;;;;;;;27.67;23.33;;;;;7.85;68.88;101826.38;5000850;28;45321;-73
2022/11/30 09:21:21;;;;;;;;;28.67;21.67;;;;;8.41;69.08;101934.84;5017284;28;45232;-74
2022/11/30 09:23:48;;;;;;;;;24.67;22.00;;;;;7.84;68.76;101845.00;5021955;28;45818;-73
2022/11/30 09:26:16;;;;;;;;;29.33;27.67;;;;;8.24;69.13;101918.25;5019453;28;45440;-73
2022/11/30 09:28:43;;;;;;;;;27.00;23.33;;;;;7.28;68.84;101743.66;5018979;28;45330;-73
2022/11/30 09:31:12;;;;;;;;;26.67;25.00;;;;;8.42;68.92;101912.75;5018602;28;45491;-75
2022/11/30 09:33:38;;;;;;;;;21.00;19.33;;;;;8.09;68.44;101855.69;4985702;28;46781;-74
2022/11/30 09:36:06;;;;;;;;;22.00;20.00;;;;;8.73;68.35;101938.03;4999399;28;45545;-73
2022/11/30 09:38:32;;;;;;;;;28.33;27.00;;;;;7.58;67.84;101748.75;5002682;28;45254;-72
2022/11/30 09:41:00;;;;;;;;;25.33;20.33;;;;;8.03;67.71;101826.13;4999103;28;45495;-74
2022/11/30 09:44:10;;;;;;;;;32.00;26.33;;;;;8.91;67.60;101943.91;4999847;28;45662;-75
2022/11/30 09:46:43;;;;;;;;;28.67;25.67;;;;;8.71;67.40;101908.97;4958669;28;45477;-72
2022/11/30 09:49:18;;;;;;;;;30.00;26.33;;;;;9.07;66.79;101939.25;4958923;28;45312;-73
2022/11/30 09:51:45;;;;;;;;;28.00;27.00;;;;;9.06;67.00;101945.53;4982977;28;45465;-74
2022/11/30 09:54:35;;;;;;;;;28.33;27.33;;;;;9.00;67.13;101941.47;4981919;28;46624;-73
2022/11/30 09:57:16;;;;;;;;;26.33;25.00;;;;;8.88;67.35;101934.34;5013291;28;45485;-73
2022/11/30 09:59:50;;;;;;;;;32.00;29.00;;;;;8.84;67.44;101935.53;5004321;28;45578;-73
2022/11/30 10:02:17;;;;;;;;;26.00;25.33;;;;;7.90;67.32;101781.06;5020664;28;46360;-74
2022/11/30 10:04:42;;;;;;;;;29.00;24.67;;;;;8.07;67.13;101812.56;5014043;28;45659;-73
2022/11/30 10:07:08;;;;;;;;;25.67;25.00;;;;;8.96;66.66;101941.78;5001832;28;45244;-74
2022/11/30 10:09:43;;;;;;;;;31.00;28.00;;;;;9.01;66.96;101937.00;5017872;28;45439;-73
2022/11/30 10:12:19;;;;;;;;;26.67;23.33;;;;;6.42;66.74;101534.22;5020849;28;45254;-77
2022/11/30 10:15:18;;;;;;;;;27.33;24.67;;;;;9.04;66.86;101935.03;5019215;28;47387;-75
2022/11/30 10:18:04;;;;;;;;;28.33;23.67;;;;;9.08;66.88;101911.78;5021066;28;45372;-74
2022/11/30 10:20:50;;;;;;;;;30.33;27.33;;;;;9.37;66.50;101925.66;5015065;28;45323;-74
2022/11/30 10:23:17;;;;;;;;;29.33;26.33;;;;;9.56;65.79;101931.38;5018053;28;45511;-74
2022/11/30 10:26:01;;;;;;;;;32.00;28.67;;;;;9.60;65.02;101937.31;4998886;28;47254;-75
2022/11/30 10:28:29;;;;;;;;;26.67;23.33;;;;;9.30;65.20;101935.88;5014779;28;45564;-75
2022/11/30 10:30:56;;;;;;;;;25.00;22.67;;;;;8.56;65.43;101817.22;5018617;28;45442;-73
2022/11/30 10:33:29;;;;;;;;;33.00;25.33;;;;;9.22;65.20;101932.91;5019627;28;45577;-75
2022/11/30 10:36:02;;;;;;;;;32.33;24.67;;;;;8.27;65.02;101791.84;5018912;28;46583;-74
2022/11/30 10:38:33;;;;;;;;;31.00;29.33;;;;;8.61;66.00;101841.66;5017571;28;45277;-76
2022/11/30 10:41:23;;;;;;;;;33.67;29.67;;;;;9.22;65.61;101911.69;5019407;28;45586;-72
2022/11/30 10:44:00;;;;;;;;;21.67;19.33;;;;;8.38;65.31;101794.63;5020252;28;45274;-75
2022/11/30 10:46:36;;;;;;;;;28.33;22.00;;;;;9.12;65.12;101919.41;5019518;28;45813;-73
2022/11/30 10:49:15;;;;;;;;;29.67;25.33;;;;;8.22;64.89;101758.56;5019096;28;45301;-75
2022/11/30 10:51:45;;;;;;;;;28.00;26.00;;;;;9.04;65.31;101887.28;5011834;28;45476;-74
2022/11/30 10:54:20;;;;;;;;;28.00;27.33;;;;;9.15;65.88;101895.31;5017879;28;45572;-76
2022/11/30 10:56:46;;;;;;;;;36.33;32.67;;;;;8.17;65.08;101726.22;5019011;28;46736;-74
2022/11/30 10:59:23;;;;;;;;;13.33;8.33;;;;;8.41;65.52;101758.19;5005481;28;45463;-75
2022/11/30 11:01:51;;;;;;;;;35.00;29.67;;;;;9.33;65.36;101864.00;5000576;28;45500;-73
2022/11/30 11:04:26;;;;;;;;;33.33;32.00;;;;;9.65;65.17;101914.81;5013270;28;45518;-75
2022/11/30 11:06:54;;;;;;;;;37.67;32.33;;;;;9.75;64.43;101907.03;5018394;28;46908;-78
2022/11/30 11:09:28;;;;;;;;;36.00;31.67;;;;;9.10;64.23;101787.84;5004665;28;45972;-74
2022/11/30 11:11:57;;;;;;;;;25.67;25.33;;;;;9.31;63.96;101810.19;5007780;28;45268;-74
2022/11/30 11:14:25;;;;;;;;;36.33;31.33;;;;;9.84;64.12;101914.34;5016801;28;45309;-74
2022/11/30 11:17:02;;;;;;;;;32.67;29.33;;;;;9.90;64.36;101905.06;5016996;28;45681;-73
2022/11/30 11:19:32;;;;;;;;;33.00;31.33;;;;;9.57;63.84;101836.66;5017159;28;45384;-72
2022/11/30 11:22:02;;;;;;;;;33.33;28.67;;;;;8.89;64.43;101734.50;5017484;28;45317;-76
2022/11/30 11:24:28;;;;;;;;;34.33;27.00;;;;;9.64;64.42;101875.94;5010687;28;45374;-71
2022/11/30 11:26:55;;;;;;;;;40.00;31.00;;;;;9.74;64.24;101900.88;5012451;28;45564;-74
2022/11/30 11:29:30;;;;;;;;;33.33;30.67;;;;;9.71;64.67;101902.91;5003003;28;45398;-74